createdAt,value
2019-01-25T00:01:12.998Z,49.50
2019-01-25T00:03:42.059Z,49.60
2019-01-25T00:06:11.191Z,49.60
2019-01-25T00:08:40.309Z,49.60
2019-01-25T00:11:09.435Z,49.50
2019-01-25T00:13:38.511Z,49.60
2019-01-25T00:16:09.099Z,49.60
2019-01-25T00:18:38.198Z,49.60
2019-01-25T00:21:07.399Z,49.60
2019-01-25T00:23:36.481Z,49.60
2019-01-25T00:26:05.763Z,49.60
2019-01-25T00:28:34.969Z,49.60
2019-01-25T00:31:04.126Z,49.60
2019-01-25T00:33:33.220Z,49.60
2019-01-25T00:36:02.448Z,49.70
2019-01-25T00:38:31.568Z,49.70
2019-01-25T00:41:00.668Z,49.80
2019-01-25T00:43:29.783Z,49.80
2019-01-25T00:45:58.903Z,49.80
2019-01-25T00:48:28.009Z,49.80
2019-01-25T00:50:57.097Z,49.80
2019-01-25T00:53:26.201Z,49.80
2019-01-25T00:55:55.323Z,49.80
2019-01-25T00:58:24.404Z,49.80
2019-01-25T01:00:53.518Z,49.80
2019-01-25T01:03:22.598Z,49.80
2019-01-25T01:05:51.709Z,49.80
2019-01-25T01:08:20.981Z,49.70
2019-01-25T01:10:50.088Z,49.90
2019-01-25T01:13:19.187Z,49.80
2019-01-25T01:15:48.284Z,49.80
2019-01-25T01:18:17.376Z,49.80
2019-01-25T01:20:46.472Z,49.90
2019-01-25T01:23:15.591Z,49.90
2019-01-25T01:25:44.719Z,49.90
2019-01-25T01:28:13.921Z,50.00
2019-01-25T01:30:42.982Z,50.00
2019-01-25T01:33:12.052Z,50.00
2019-01-25T01:35:41.229Z,50.00
2019-01-25T01:38:10.310Z,50.00
2019-01-25T01:40:39.335Z,50.00
2019-01-25T01:43:08.403Z,50.00
2019-01-25T01:45:37.532Z,50.00
2019-01-25T01:48:06.633Z,50.00
2019-01-25T01:50:35.736Z,49.90
2019-01-25T01:53:04.872Z,49.90
2019-01-25T01:55:33.909Z,49.90
2019-01-25T01:58:03.020Z,49.90
2019-01-25T02:00:32.078Z,49.90
2019-01-25T02:03:01.166Z,49.90
2019-01-25T02:05:30.310Z,49.90
2019-01-25T02:07:59.553Z,49.90
2019-01-25T02:10:29.442Z,49.90
2019-01-25T02:12:58.917Z,49.90
2019-01-25T02:15:27.966Z,50.00
2019-01-25T02:17:57.119Z,50.00
2019-01-25T02:20:30.768Z,50.00
2019-01-25T02:23:01.103Z,50.00
2019-01-25T02:25:30.215Z,50.00
2019-01-25T02:27:59.308Z,50.00
2019-01-25T02:30:28.487Z,50.00
2019-01-25T02:32:57.564Z,50.00
2019-01-25T02:35:26.675Z,50.10
2019-01-25T02:37:55.790Z,50.10
2019-01-25T02:40:25.829Z,50.00
2019-01-25T02:42:54.947Z,50.10
2019-01-25T02:45:24.055Z,50.10
2019-01-25T02:47:53.159Z,50.10
2019-01-25T02:50:22.277Z,50.20
2019-01-25T02:52:51.409Z,50.30
2019-01-25T02:55:20.507Z,50.30
2019-01-25T02:57:49.635Z,50.20
2019-01-25T03:00:25.920Z,50.20
2019-01-25T03:02:56.581Z,50.20
2019-01-25T03:05:26.255Z,50.20
2019-01-25T03:07:55.362Z,50.10
2019-01-25T03:10:29.011Z,50.20
2019-01-25T03:12:56.457Z,50.10
2019-01-25T03:15:26.619Z,50.10
2019-01-25T03:17:55.788Z,50.10
2019-01-25T03:20:25.925Z,50.10
2019-01-25T03:22:55.020Z,50.10
2019-01-25T03:25:25.867Z,50.10
2019-01-25T03:27:54.925Z,50.20
2019-01-25T03:30:24.909Z,50.30
2019-01-25T03:32:53.993Z,50.40
2019-01-25T03:35:23.852Z,50.50
2019-01-25T03:37:53.015Z,50.50
2019-01-25T03:40:24.057Z,50.40
2019-01-25T03:42:53.164Z,50.40
2019-01-25T03:45:22.394Z,50.40
2019-01-25T03:47:51.567Z,50.40
2019-01-25T03:50:25.865Z,50.30
2019-01-25T03:52:55.009Z,50.30
2019-01-25T03:55:24.103Z,50.30
2019-01-25T03:57:53.227Z,50.20
2019-01-25T04:00:24.055Z,50.20
2019-01-25T04:02:53.166Z,50.20
2019-01-25T04:05:22.308Z,50.20
2019-01-25T04:07:51.475Z,50.20
2019-01-25T04:10:22.003Z,50.20
2019-01-25T04:12:51.083Z,50.30
2019-01-25T04:15:22.499Z,50.40
2019-01-25T04:17:53.193Z,50.40
2019-01-25T04:20:22.355Z,51.10
2019-01-25T04:22:51.471Z,50.50
2019-01-25T04:25:21.539Z,50.50
2019-01-25T04:27:50.692Z,50.40
2019-01-25T04:30:21.790Z,50.50
2019-01-25T04:32:50.966Z,50.40
2019-01-25T04:35:20.061Z,50.40
2019-01-25T04:37:49.183Z,50.40
2019-01-25T04:40:18.387Z,50.40
2019-01-25T04:42:47.513Z,50.40
2019-01-25T04:45:17.883Z,50.30
2019-01-25T04:47:47.017Z,50.30
2019-01-25T04:50:19.223Z,50.20
2019-01-25T04:52:48.534Z,50.20
2019-01-25T04:55:36.857Z,50.30
2019-01-25T04:58:25.187Z,50.30
2019-01-25T05:00:54.291Z,50.30
2019-01-25T05:03:23.379Z,50.40
2019-01-25T05:05:52.402Z,50.50
2019-01-25T05:08:22.884Z,50.50
2019-01-25T05:10:51.925Z,50.50
2019-01-25T05:13:20.960Z,50.50
2019-01-25T05:15:50.046Z,50.50
2019-01-25T05:18:19.087Z,50.50
2019-01-25T05:20:48.142Z,51.10
2019-01-25T05:23:17.245Z,50.50
2019-01-25T05:25:46.257Z,50.50
2019-01-25T05:28:21.194Z,50.50
2019-01-25T05:30:58.674Z,50.40
2019-01-25T05:33:27.758Z,50.40
2019-01-25T05:35:56.769Z,50.50
2019-01-25T05:38:25.833Z,50.50
2019-01-25T05:40:54.924Z,50.50
2019-01-25T05:43:23.974Z,50.50
2019-01-25T05:45:53.043Z,50.60
2019-01-25T05:48:29.272Z,50.60
2019-01-25T05:51:01.844Z,50.60
2019-01-25T05:53:30.878Z,50.70
2019-01-25T05:56:01.097Z,50.70
2019-01-25T05:58:31.926Z,50.90
2019-01-25T06:01:01.098Z,50.90
2019-01-25T06:03:30.165Z,50.90
2019-01-25T06:06:06.408Z,51.00
2019-01-25T06:08:43.571Z,51.10
2019-01-25T06:11:09.499Z,51.00
2019-01-25T06:13:39.254Z,51.80
2019-01-25T06:16:08.311Z,51.10
2019-01-25T06:18:37.292Z,51.10
2019-01-25T06:21:06.429Z,51.20
2019-01-25T06:23:35.474Z,51.30
2019-01-25T06:26:04.993Z,51.40
2019-01-25T06:28:34.056Z,51.50
2019-01-25T06:31:03.143Z,51.60
2019-01-25T06:33:32.173Z,51.80
2019-01-25T06:36:01.216Z,51.80
2019-01-25T06:38:30.998Z,51.80
2019-01-25T06:40:59.973Z,51.80
2019-01-25T06:43:28.965Z,51.80
2019-01-25T06:45:58.054Z,51.80
2019-01-25T06:48:27.634Z,51.90
2019-01-25T06:51:00.166Z,51.90
2019-01-25T06:53:30.262Z,51.90
2019-01-25T06:56:02.781Z,51.80
2019-01-25T06:58:59.629Z,51.80
2019-01-25T07:02:02.644Z,51.80
2019-01-25T07:04:31.804Z,51.80
2019-01-25T07:07:00.858Z,51.80
2019-01-25T07:09:29.899Z,51.70
2019-01-25T07:11:58.979Z,51.70
2019-01-25T07:14:28.026Z,51.70
2019-01-25T07:16:57.078Z,51.70
2019-01-25T07:19:26.222Z,51.50
2019-01-25T07:21:55.283Z,51.50
2019-01-25T07:24:25.466Z,51.50
2019-01-25T07:26:54.510Z,51.40
2019-01-25T07:29:23.498Z,51.40
2019-01-25T07:31:52.540Z,51.40
2019-01-25T07:34:21.550Z,51.40
2019-01-25T07:36:52.054Z,51.40
2019-01-25T07:39:26.457Z,51.30
2019-01-25T07:42:00.294Z,51.30
2019-01-25T07:44:26.285Z,51.30
2019-01-25T07:46:56.374Z,51.20
2019-01-25T07:49:25.420Z,51.20
2019-01-25T07:51:54.485Z,51.20
2019-01-25T07:54:23.557Z,51.20
2019-01-25T07:56:52.589Z,51.10
2019-01-25T07:59:21.644Z,51.10
2019-01-25T08:01:50.677Z,51.10
2019-01-25T08:04:19.734Z,51.20
2019-01-25T08:06:48.786Z,51.30
2019-01-25T08:09:17.828Z,51.20
2019-01-25T08:11:46.845Z,51.30
2019-01-25T08:14:15.945Z,51.20
2019-01-25T08:16:45.093Z,51.30
2019-01-25T08:19:14.141Z,51.20
2019-01-25T08:21:43.208Z,51.20
2019-01-25T08:24:12.252Z,51.20
2019-01-25T08:26:41.327Z,51.10
2019-01-25T08:29:10.377Z,51.10
2019-01-25T08:31:39.428Z,51.10
2019-01-25T08:34:08.450Z,51.00
2019-01-25T08:36:37.513Z,51.00
2019-01-25T08:39:12.020Z,51.00
2019-01-25T08:41:41.065Z,51.00
2019-01-25T08:44:10.135Z,51.00
2019-01-25T08:46:40.357Z,51.00
2019-01-25T08:49:09.507Z,51.10
2019-01-25T08:51:38.607Z,51.10
2019-01-25T08:54:07.640Z,51.10
2019-01-25T08:56:36.726Z,51.10
2019-01-25T08:59:05.859Z,51.10
2019-01-25T09:01:34.895Z,51.70
2019-01-25T09:04:03.990Z,51.10
2019-01-25T09:06:32.981Z,51.10
2019-01-25T09:09:02.016Z,51.10
2019-01-25T09:11:31.077Z,51.00
2019-01-25T09:14:00.125Z,51.00
2019-01-25T09:16:29.150Z,50.90
2019-01-25T09:18:58.161Z,50.90
2019-01-25T09:21:27.211Z,51.00
2019-01-25T09:23:56.193Z,51.10
2019-01-25T09:26:25.240Z,51.10
2019-01-25T09:28:54.218Z,51.10
2019-01-25T09:31:23.244Z,51.20
2019-01-25T09:33:52.305Z,51.10
2019-01-25T09:36:21.341Z,51.80
2019-01-25T09:38:50.390Z,51.10
2019-01-25T09:41:19.422Z,51.00
2019-01-25T09:43:48.485Z,51.00
2019-01-25T09:46:17.585Z,50.90
2019-01-25T09:48:46.664Z,50.90
2019-01-25T09:51:15.790Z,50.90
2019-01-25T09:53:44.764Z,50.90
2019-01-25T09:56:13.818Z,51.00
2019-01-25T09:58:45.206Z,51.00
2019-01-25T10:01:14.629Z,51.00
2019-01-25T10:03:43.642Z,50.90
2019-01-25T10:06:12.709Z,51.10
2019-01-25T10:08:41.746Z,51.00
2019-01-25T10:11:10.726Z,51.10
2019-01-25T10:13:39.769Z,51.10
2019-01-25T10:16:08.842Z,51.10
2019-01-25T10:18:37.847Z,51.20
2019-01-25T10:21:06.856Z,51.20
2019-01-25T10:23:39.197Z,51.20
2019-01-25T10:26:06.599Z,51.20
2019-01-25T10:28:35.651Z,51.10
2019-01-25T10:31:04.686Z,51.10
2019-01-25T10:33:33.742Z,51.20
2019-01-25T10:36:02.717Z,51.10
2019-01-25T10:38:31.838Z,51.10
2019-01-25T10:41:00.926Z,51.00
2019-01-25T10:43:29.984Z,51.00
2019-01-25T10:45:59.034Z,51.10
2019-01-25T10:48:28.021Z,51.10
2019-01-25T10:50:57.112Z,51.20
2019-01-25T10:53:26.127Z,51.20
2019-01-25T10:55:55.144Z,51.30
2019-01-25T10:58:24.205Z,51.30
2019-01-25T11:00:53.275Z,51.20
2019-01-25T11:03:22.405Z,51.20
2019-01-25T11:05:51.449Z,51.20
2019-01-25T11:08:20.508Z,51.20
2019-01-25T11:10:49.472Z,51.20
2019-01-25T11:13:18.545Z,51.20
2019-01-25T11:15:47.600Z,51.30
2019-01-25T11:18:16.668Z,51.40
2019-01-25T11:20:45.728Z,51.30
2019-01-25T11:23:14.813Z,52.00
2019-01-25T11:25:43.854Z,51.30
2019-01-25T11:28:12.907Z,51.30
2019-01-25T11:30:41.971Z,51.30
2019-01-25T11:33:11.021Z,51.40
2019-01-25T11:35:48.366Z,51.40
2019-01-25T11:38:17.819Z,51.50
2019-01-25T11:40:46.905Z,51.40
2019-01-25T11:43:15.944Z,51.40
2019-01-25T11:45:45.024Z,51.40
2019-01-25T11:48:14.965Z,51.30
2019-01-25T11:50:44.096Z,51.40
2019-01-25T11:53:13.127Z,51.40
2019-01-25T11:55:42.213Z,51.40
2019-01-25T11:58:11.247Z,51.30
2019-01-25T12:00:44.056Z,51.40
2019-01-25T12:03:13.777Z,51.40
2019-01-25T12:05:42.865Z,51.40
2019-01-25T12:08:13.425Z,51.30
2019-01-25T12:10:42.683Z,51.30
2019-01-25T12:13:16.039Z,51.40
2019-01-25T12:15:42.406Z,51.40
2019-01-25T12:18:11.466Z,51.40
2019-01-25T12:20:40.442Z,51.40
2019-01-25T12:23:09.361Z,51.50
2019-01-25T12:25:42.516Z,51.50
2019-01-25T12:28:11.795Z,51.60
2019-01-25T12:30:41.053Z,51.60
2019-01-25T12:33:10.466Z,51.60
2019-01-25T12:35:41.625Z,51.50
2019-01-25T12:38:10.655Z,51.50
2019-01-25T12:40:42.200Z,51.50
2019-01-25T12:43:10.426Z,51.50
2019-01-25T12:45:39.409Z,51.50
2019-01-25T12:48:08.571Z,51.50
2019-01-25T12:50:49.443Z,51.40
2019-01-25T12:53:19.198Z,51.40
2019-01-25T12:55:48.191Z,51.50
2019-01-25T12:58:18.553Z,51.50
2019-01-25T13:00:49.230Z,51.60
2019-01-25T13:03:18.209Z,51.60
2019-01-25T13:05:47.231Z,51.60
2019-01-25T13:08:16.261Z,51.70
2019-01-25T13:10:45.332Z,51.70
2019-01-25T13:13:14.392Z,51.70
2019-01-25T13:15:43.456Z,51.70
2019-01-25T13:18:12.482Z,51.80
2019-01-25T13:20:43.146Z,51.70
2019-01-25T13:23:12.215Z,51.70
2019-01-25T13:25:41.276Z,51.70
2019-01-25T13:28:10.348Z,51.70
2019-01-25T13:30:39.409Z,51.70
2019-01-25T13:33:08.573Z,51.70
2019-01-25T13:35:37.621Z,51.70
2019-01-25T13:38:06.683Z,51.70
2019-01-25T13:40:35.667Z,51.70
2019-01-25T13:43:04.709Z,51.80
2019-01-25T13:45:33.808Z,51.80
2019-01-25T13:48:03.017Z,51.80
2019-01-25T13:50:32.062Z,52.00
2019-01-25T13:53:01.023Z,52.10
2019-01-25T13:55:30.173Z,52.30
2019-01-25T13:57:59.222Z,52.30
2019-01-25T14:00:30.278Z,52.40
2019-01-25T14:02:59.298Z,52.30
2019-01-25T14:05:28.272Z,52.30
2019-01-25T14:07:57.473Z,52.40
2019-01-25T14:10:28.636Z,52.80
2019-01-25T14:12:57.682Z,52.40
2019-01-25T14:15:26.781Z,52.30
2019-01-25T14:17:55.966Z,52.30
2019-01-25T14:20:26.633Z,52.30
2019-01-25T14:22:55.683Z,52.40
2019-01-25T14:25:24.758Z,52.40
2019-01-25T14:27:53.809Z,52.30
2019-01-25T14:30:37.048Z,52.30
2019-01-25T14:33:06.508Z,52.40
2019-01-25T14:35:35.580Z,52.40
2019-01-25T14:38:06.129Z,52.40
2019-01-25T14:40:35.178Z,52.40
2019-01-25T14:43:04.140Z,52.40
2019-01-25T14:45:33.182Z,52.40
2019-01-25T14:48:02.186Z,52.30
2019-01-25T14:50:31.373Z,52.30
2019-01-25T14:53:00.470Z,52.30
2019-01-25T14:56:29.708Z,51.70
2019-01-25T14:58:58.765Z,52.30
2019-01-25T15:01:27.856Z,53.10
2019-01-25T15:03:56.887Z,54.00
2019-01-25T15:06:25.878Z,54.80
2019-01-25T15:08:54.935Z,55.40
2019-01-25T15:11:24.009Z,55.90
2019-01-25T15:13:53.114Z,56.20
2019-01-25T15:16:22.175Z,56.60
2019-01-25T15:18:51.403Z,56.80
2019-01-25T15:21:20.387Z,57.10
2019-01-25T15:23:49.438Z,57.30
2019-01-25T15:26:19.069Z,57.40
2019-01-25T15:28:48.193Z,57.60
2019-01-25T15:31:17.344Z,57.70
2019-01-25T15:33:46.420Z,57.80
2019-01-25T15:36:15.481Z,57.90
2019-01-25T15:38:44.507Z,58.10
2019-01-25T15:41:13.575Z,58.20
2019-01-25T15:43:42.649Z,58.90
2019-01-25T15:46:11.690Z,58.30
2019-01-25T15:48:40.745Z,58.40
2019-01-25T15:51:09.798Z,58.50
2019-01-25T15:53:38.870Z,58.50
2019-01-25T15:56:07.949Z,58.60
2019-01-25T15:58:36.969Z,58.70
2019-01-25T16:01:05.984Z,58.80
2019-01-25T16:03:35.051Z,58.80
2019-01-25T16:06:04.113Z,58.90
2019-01-25T16:08:33.155Z,58.90
2019-01-25T16:11:02.243Z,59.00
2019-01-25T16:13:31.294Z,59.00
2019-01-25T16:16:00.374Z,59.10
2019-01-25T16:18:29.433Z,59.10
2019-01-25T16:20:58.567Z,59.20
2019-01-25T16:23:27.631Z,59.30
2019-01-25T16:25:56.702Z,59.30
2019-01-25T16:28:25.677Z,59.40
2019-01-25T16:30:54.718Z,59.40
2019-01-25T16:33:23.753Z,59.40
2019-01-25T16:35:52.822Z,59.40
2019-01-25T16:38:21.882Z,59.40
2019-01-25T16:40:50.913Z,59.40
2019-01-25T16:43:20.037Z,59.50
2019-01-25T16:45:49.093Z,58.90
2019-01-25T16:48:18.153Z,59.50
2019-01-25T16:50:47.196Z,59.60
2019-01-25T16:53:16.218Z,59.50
2019-01-25T16:55:45.297Z,59.60
2019-01-25T16:58:14.365Z,59.60
2019-01-25T17:00:45.673Z,59.70
2019-01-25T17:03:14.850Z,59.70
2019-01-25T17:05:43.920Z,59.70
2019-01-25T17:08:17.191Z,59.70
2019-01-25T17:10:48.647Z,59.70
2019-01-25T17:13:19.853Z,59.80
2019-01-25T17:15:49.079Z,59.80
2019-01-25T17:18:19.329Z,59.80
2019-01-25T17:20:48.814Z,59.80
2019-01-25T17:23:17.811Z,59.80
2019-01-25T17:25:46.816Z,59.80
2019-01-25T17:28:15.925Z,59.80
2019-01-25T17:30:45.094Z,59.80
2019-01-25T17:33:14.182Z,59.80
2019-01-25T17:35:43.251Z,59.90
2019-01-25T17:38:12.306Z,59.80
2019-01-25T17:40:46.792Z,59.90
2019-01-25T17:43:14.627Z,59.90
2019-01-25T17:45:43.685Z,59.90
2019-01-25T17:48:14.175Z,59.90
2019-01-25T17:50:43.229Z,60.00
2019-01-25T17:53:12.487Z,60.00
2019-01-25T17:55:41.515Z,60.00
2019-01-25T17:58:10.485Z,60.00
2019-01-25T18:00:49.852Z,60.00
2019-01-25T18:03:19.150Z,60.00
2019-01-25T18:05:48.328Z,60.10
2019-01-25T18:08:18.924Z,60.10
2019-01-25T18:10:47.986Z,60.00
2019-01-25T18:13:17.044Z,60.10
2019-01-25T18:15:46.106Z,60.10
2019-01-25T18:18:15.138Z,60.10
2019-01-25T18:20:44.193Z,60.10
2019-01-25T18:23:13.201Z,60.10
2019-01-25T18:25:50.895Z,60.10
2019-01-25T18:28:24.821Z,60.10
2019-01-25T18:30:59.799Z,60.10
2019-01-25T18:33:28.869Z,60.20
2019-01-25T18:35:58.097Z,60.20
2019-01-25T18:38:46.323Z,60.80
2019-01-25T18:41:15.403Z,60.20
2019-01-25T18:43:44.608Z,60.20
2019-01-25T18:46:13.660Z,60.20
2019-01-25T18:48:50.425Z,60.20
2019-01-25T18:51:19.548Z,60.20
2019-01-25T18:53:48.586Z,60.20
2019-01-25T18:56:19.120Z,60.30
2019-01-25T18:58:48.183Z,60.30
2019-01-25T19:01:26.865Z,60.30
2019-01-25T19:03:55.975Z,60.30
2019-01-25T19:06:25.122Z,60.30
2019-01-25T19:08:55.461Z,60.30
2019-01-25T19:11:24.390Z,60.40
2019-01-25T19:13:53.366Z,60.40
2019-01-25T19:16:22.504Z,60.40
2019-01-25T19:18:51.591Z,60.40
2019-01-25T19:21:20.959Z,60.40
2019-01-25T19:23:50.035Z,60.40
2019-01-25T19:26:19.608Z,60.40
2019-01-25T19:28:48.758Z,60.40
2019-01-25T19:31:18.268Z,60.40
2019-01-25T19:33:47.430Z,60.40
2019-01-25T19:36:17.984Z,60.40
2019-01-25T19:38:47.074Z,60.50
2019-01-25T19:41:16.119Z,60.50
2019-01-25T19:43:45.268Z,60.50
2019-01-25T19:46:14.316Z,60.50
2019-01-25T19:48:43.456Z,61.30
2019-01-25T19:51:12.570Z,60.50
2019-01-25T19:53:41.577Z,60.50
2019-01-25T19:56:10.579Z,60.50
2019-01-25T19:58:39.589Z,60.50
2019-01-25T20:01:08.646Z,60.50
2019-01-25T20:03:38.563Z,60.50
2019-01-25T20:06:07.594Z,60.50
2019-01-25T20:08:36.752Z,60.50
2019-01-25T20:11:05.773Z,60.50
2019-01-25T20:13:40.383Z,60.50
2019-01-25T20:16:10.211Z,60.60
2019-01-25T20:18:39.242Z,60.60
2019-01-25T20:21:08.381Z,60.60
2019-01-25T20:23:37.456Z,60.70
2019-01-25T20:26:07.384Z,60.60
2019-01-25T20:28:36.342Z,60.60
2019-01-25T20:31:05.368Z,60.60
2019-01-25T20:33:35.262Z,60.60
2019-01-25T20:36:04.633Z,60.60
2019-01-25T20:38:33.759Z,60.60
2019-01-25T20:41:04.154Z,60.70
2019-01-25T20:43:33.198Z,60.60
2019-01-25T20:46:02.223Z,60.70
2019-01-25T20:48:31.268Z,60.70
2019-01-25T20:51:00.340Z,60.60
2019-01-25T20:53:29.405Z,60.70
2019-01-25T20:55:58.562Z,60.70
2019-01-25T20:58:27.479Z,60.70
2019-01-25T21:00:56.519Z,60.70
2019-01-25T21:03:25.614Z,60.70
2019-01-25T21:05:54.590Z,60.70
2019-01-25T21:08:23.649Z,60.60
2019-01-25T21:10:52.729Z,60.70
2019-01-25T21:13:21.763Z,60.70
2019-01-25T21:15:50.921Z,60.80
2019-01-25T21:18:20.076Z,60.70
2019-01-25T21:20:49.209Z,60.70
2019-01-25T21:23:18.302Z,60.70
2019-01-25T21:25:47.364Z,60.70
2019-01-25T21:28:16.441Z,63.50
2019-01-25T21:30:45.523Z,63.80
2019-01-25T21:33:14.701Z,63.80
2019-01-25T21:35:43.875Z,63.70
2019-01-25T21:38:13.001Z,63.50
2019-01-25T21:40:42.165Z,63.10
2019-01-25T21:43:11.215Z,62.60
2019-01-25T21:45:43.320Z,62.30
2019-01-25T21:48:13.861Z,61.90
2019-01-25T21:50:43.487Z,61.70
2019-01-25T21:53:13.058Z,61.50
2019-01-25T21:55:42.154Z,61.40
2019-01-25T21:58:11.283Z,61.20
2019-01-25T22:00:40.494Z,61.10
2019-01-25T22:03:09.510Z,60.90
2019-01-25T22:05:38.506Z,60.70
2019-01-25T22:08:07.536Z,60.40
2019-01-25T22:10:39.477Z,60.10
2019-01-25T22:13:08.583Z,59.80
2019-01-25T22:15:37.630Z,59.60
2019-01-25T22:18:06.695Z,59.50
2019-01-25T22:20:35.748Z,59.40
2019-01-25T22:23:04.880Z,59.10
2019-01-25T22:25:34.076Z,59.00
2019-01-25T22:28:03.141Z,58.80
2019-01-25T22:30:32.187Z,58.60
2019-01-25T22:33:01.247Z,58.40
2019-01-25T22:35:30.355Z,58.10
2019-01-25T22:37:59.351Z,57.80
2019-01-25T22:40:30.187Z,57.70
2019-01-25T22:42:59.465Z,57.50
2019-01-25T22:45:30.074Z,57.30
2019-01-25T22:48:00.161Z,57.10
2019-01-25T22:50:30.946Z,57.00
2019-01-25T22:52:59.990Z,57.10
2019-01-25T22:55:29.178Z,57.00
2019-01-25T22:57:58.213Z,56.90
2019-01-25T23:00:50.772Z,56.90
2019-01-25T23:03:58.945Z,56.80
2019-01-25T23:06:37.930Z,56.80
2019-01-25T23:09:11.708Z,56.80
2019-01-25T23:11:40.786Z,56.70
2019-01-25T23:14:09.794Z,56.70
2019-01-25T23:16:38.900Z,56.70
2019-01-25T23:19:07.939Z,57.30
2019-01-25T23:21:37.040Z,56.60
2019-01-25T23:24:06.151Z,56.60
2019-01-25T23:26:35.237Z,56.50
2019-01-25T23:29:04.369Z,56.60
2019-01-25T23:31:33.439Z,56.70
2019-01-25T23:34:02.596Z,56.70
2019-01-25T23:36:31.644Z,56.80
2019-01-25T23:39:00.796Z,56.90
2019-01-25T23:41:29.877Z,57.00
2019-01-25T23:43:58.925Z,57.10
2019-01-25T23:46:27.949Z,57.10
2019-01-25T23:48:56.967Z,57.10
2019-01-25T23:51:26.051Z,57.00
2019-01-25T23:53:55.122Z,57.00
2019-01-25T23:56:24.104Z,57.00
2019-01-25T23:58:53.114Z,57.00
